sensor_id;sensor_type;location;lat;lon;timestamp;temperature;humidity
8994;DHT22;4532;50.886;4.700;2022-10-16T00:01:36;16.20;99.90
8994;DHT22;4532;50.886;4.700;2022-10-16T00:04:03;16.20;99.90
8994;DHT22;4532;50.886;4.700;2022-10-16T00:06:33;16.20;99.90
8994;DHT22;4532;50.886;4.700;2022-10-16T00:09:03;16.20;99.90
8994;DHT22;4532;50.886;4.700;2022-10-16T00:11:33;16.20;99.90
8994;DHT22;4532;50.886;4.700;2022-10-16T00:14:02;16.20;99.90
8994;DHT22;4532;50.886;4.700;2022-10-16T00:16:31;16.20;99.90
8994;DHT22;4532;50.886;4.700;2022-10-16T00:19:00;16.20;99.90
8994;DHT22;4532;50.886;4.700;2022-10-16T00:21:29;16.20;99.90
8994;DHT22;4532;50.886;4.700;2022-10-16T00:24:03;16.20;99.90
8994;DHT22;4532;50.886;4.700;2022-10-16T00:26:33;16.20;99.90
8994;DHT22;4532;50.886;4.700;2022-10-16T00:29:00;16.20;99.90
8994;DHT22;4532;50.886;4.700;2022-10-16T00:31:28;16.20;99.90
8994;DHT22;4532;50.886;4.700;2022-10-16T00:33:57;16.20;99.90
8994;DHT22;4532;50.886;4.700;2022-10-16T00:36:25;16.10;99.90
8994;DHT22;4532;50.886;4.700;2022-10-16T00:38:55;16.10;99.90
8994;DHT22;4532;50.886;4.700;2022-10-16T00:41:24;16.10;99.90
8994;DHT22;4532;50.886;4.700;2022-10-16T00:43:57;16.10;99.90
8994;DHT22;4532;50.886;4.700;2022-10-16T00:46:46;16.10;99.90
8994;DHT22;4532;50.886;4.700;2022-10-16T00:49:16;16.10;99.90
8994;DHT22;4532;50.886;4.700;2022-10-16T00:51:52;16.10;99.90
8994;DHT22;4532;50.886;4.700;2022-10-16T00:54:22;16.10;99.90
8994;DHT22;4532;50.886;4.700;2022-10-16T00:56:51;16.10;99.90
8994;DHT22;4532;50.886;4.700;2022-10-16T00:59:23;16.10;99.90
8994;DHT22;4532;50.886;4.700;2022-10-16T01:01:52;16.10;99.90
8994;DHT22;4532;50.886;4.700;2022-10-16T01:04:20;16.00;99.90
8994;DHT22;4532;50.886;4.700;2022-10-16T01:06:54;16.00;99.90
8994;DHT22;4532;50.886;4.700;2022-10-16T01:09:50;16.00;99.90
8994;DHT22;4532;50.886;4.700;2022-10-16T01:20:29;15.90;99.90
8994;DHT22;4532;50.886;4.700;2022-10-16T01:28:39;15.90;99.90
8994;DHT22;4532;50.886;4.700;2022-10-16T01:31:10;15.90;99.90
8994;DHT22;4532;50.886;4.700;2022-10-16T01:33:51;15.90;99.90
8994;DHT22;4532;50.886;4.700;2022-10-16T01:36:29;15.90;99.90
8994;DHT22;4532;50.886;4.700;2022-10-16T01:39:00;15.90;99.90
8994;DHT22;4532;50.886;4.700;2022-10-16T01:41:54;15.90;99.90
8994;DHT22;4532;50.886;4.700;2022-10-16T01:44:45;15.90;99.90
8994;DHT22;4532;50.886;4.700;2022-10-16T01:47:15;15.90;99.90
8994;DHT22;4532;50.886;4.700;2022-10-16T01:49:45;15.90;99.90
8994;DHT22;4532;50.886;4.700;2022-10-16T01:52:16;15.80;99.90
8994;DHT22;4532;50.886;4.700;2022-10-16T01:54:47;15.80;99.90
8994;DHT22;4532;50.886;4.700;2022-10-16T01:57:16;15.80;99.90
8994;DHT22;4532;50.886;4.700;2022-10-16T01:59:47;15.80;99.90
8994;DHT22;4532;50.886;4.700;2022-10-16T02:02:17;15.80;99.90
8994;DHT22;4532;50.886;4.700;2022-10-16T02:07:33;15.80;99.90
8994;DHT22;4532;50.886;4.700;2022-10-16T02:10:01;15.80;99.90
8994;DHT22;4532;50.886;4.700;2022-10-16T02:12:31;15.70;99.90
8994;DHT22;4532;50.886;4.700;2022-10-16T02:14:59;15.70;99.90
8994;DHT22;4532;50.886;4.700;2022-10-16T02:17:27;15.80;99.90
8994;DHT22;4532;50.886;4.700;2022-10-16T02:19:57;15.70;99.90
8994;DHT22;4532;50.886;4.700;2022-10-16T02:22:39;15.80;99.90
8994;DHT22;4532;50.886;4.700;2022-10-16T02:25:19;15.80;99.90
8994;DHT22;4532;50.886;4.700;2022-10-16T02:30:45;15.80;99.90
8994;DHT22;4532;50.886;4.700;2022-10-16T02:33:16;15.80;99.90
8994;DHT22;4532;50.886;4.700;2022-10-16T02:35:46;15.80;99.90
8994;DHT22;4532;50.886;4.700;2022-10-16T02:38:15;15.80;99.90
8994;DHT22;4532;50.886;4.700;2022-10-16T02:40:43;15.80;99.90
8994;DHT22;4532;50.886;4.700;2022-10-16T02:43:16;15.80;99.90
8994;DHT22;4532;50.886;4.700;2022-10-16T02:45:45;15.80;99.90
8994;DHT22;4532;50.886;4.700;2022-10-16T02:48:12;15.80;99.90
8994;DHT22;4532;50.886;4.700;2022-10-16T02:50:40;15.80;99.90
8994;DHT22;4532;50.886;4.700;2022-10-16T02:53:07;15.80;99.90
8994;DHT22;4532;50.886;4.700;2022-10-16T02:55:34;15.80;99.90
8994;DHT22;4532;50.886;4.700;2022-10-16T02:58:01;15.80;99.90
8994;DHT22;4532;50.886;4.700;2022-10-16T03:00:28;15.70;99.90
8994;DHT22;4532;50.886;4.700;2022-10-16T03:02:56;15.70;99.90
8994;DHT22;4532;50.886;4.700;2022-10-16T03:05:23;15.70;99.90
8994;DHT22;4532;50.886;4.700;2022-10-16T03:07:50;15.70;99.90
8994;DHT22;4532;50.886;4.700;2022-10-16T03:10:19;15.70;99.90
8994;DHT22;4532;50.886;4.700;2022-10-16T03:12:46;15.70;99.90
8994;DHT22;4532;50.886;4.700;2022-10-16T03:15:13;15.70;99.90
8994;DHT22;4532;50.886;4.700;2022-10-16T03:17:41;15.70;99.90
8994;DHT22;4532;50.886;4.700;2022-10-16T03:20:08;15.70;99.90
8994;DHT22;4532;50.886;4.700;2022-10-16T03:22:35;15.70;99.90
8994;DHT22;4532;50.886;4.700;2022-10-16T03:25:03;15.70;99.90
8994;DHT22;4532;50.886;4.700;2022-10-16T03:27:32;15.70;99.90
8994;DHT22;4532;50.886;4.700;2022-10-16T03:29:59;15.70;99.90
8994;DHT22;4532;50.886;4.700;2022-10-16T03:32:26;15.70;99.90
8994;DHT22;4532;50.886;4.700;2022-10-16T03:34:55;15.70;99.90
8994;DHT22;4532;50.886;4.700;2022-10-16T03:37:26;15.70;99.90
8994;DHT22;4532;50.886;4.700;2022-10-16T03:39:53;15.70;99.90
8994;DHT22;4532;50.886;4.700;2022-10-16T03:42:23;15.70;99.90
8994;DHT22;4532;50.886;4.700;2022-10-16T03:44:53;15.70;99.90
8994;DHT22;4532;50.886;4.700;2022-10-16T03:47:20;15.70;99.90
8994;DHT22;4532;50.886;4.700;2022-10-16T03:49:50;15.70;99.90
8994;DHT22;4532;50.886;4.700;2022-10-16T03:52:18;15.70;99.90
8994;DHT22;4532;50.886;4.700;2022-10-16T03:54:50;15.70;99.90
8994;DHT22;4532;50.886;4.700;2022-10-16T03:57:17;15.70;99.90
8994;DHT22;4532;50.886;4.700;2022-10-16T03:59:45;15.70;99.90
8994;DHT22;4532;50.886;4.700;2022-10-16T04:02:12;15.70;99.90
8994;DHT22;4532;50.886;4.700;2022-10-16T04:04:42;15.70;99.90
8994;DHT22;4532;50.886;4.700;2022-10-16T04:07:09;15.70;99.90
8994;DHT22;4532;50.886;4.700;2022-10-16T04:09:36;15.80;99.90
8994;DHT22;4532;50.886;4.700;2022-10-16T04:12:05;15.70;99.90
8994;DHT22;4532;50.886;4.700;2022-10-16T04:14:33;15.80;99.90
8994;DHT22;4532;50.886;4.700;2022-10-16T04:17:00;15.80;99.90
8994;DHT22;4532;50.886;4.700;2022-10-16T04:19:27;15.70;99.90
8994;DHT22;4532;50.886;4.700;2022-10-16T04:21:54;15.80;99.90
8994;DHT22;4532;50.886;4.700;2022-10-16T04:24:21;15.80;99.90
8994;DHT22;4532;50.886;4.700;2022-10-16T04:26:51;15.80;99.90
8994;DHT22;4532;50.886;4.700;2022-10-16T04:29:21;15.80;99.90
8994;DHT22;4532;50.886;4.700;2022-10-16T04:31:48;15.80;99.90
8994;DHT22;4532;50.886;4.700;2022-10-16T04:34:16;15.80;99.90
8994;DHT22;4532;50.886;4.700;2022-10-16T04:36:46;15.80;99.90
8994;DHT22;4532;50.886;4.700;2022-10-16T04:39:13;15.80;99.90
8994;DHT22;4532;50.886;4.700;2022-10-16T04:41:40;15.80;99.90
8994;DHT22;4532;50.886;4.700;2022-10-16T04:44:07;15.80;99.90
8994;DHT22;4532;50.886;4.700;2022-10-16T04:46:35;15.80;99.90
8994;DHT22;4532;50.886;4.700;2022-10-16T04:49:02;15.80;99.90
8994;DHT22;4532;50.886;4.700;2022-10-16T04:51:29;15.80;99.90
8994;DHT22;4532;50.886;4.700;2022-10-16T04:53:59;15.80;99.90
8994;DHT22;4532;50.886;4.700;2022-10-16T04:56:26;15.70;99.90
8994;DHT22;4532;50.886;4.700;2022-10-16T04:58:53;15.70;99.90
8994;DHT22;4532;50.886;4.700;2022-10-16T05:01:20;15.70;99.90
8994;DHT22;4532;50.886;4.700;2022-10-16T05:03:48;15.70;99.90
8994;DHT22;4532;50.886;4.700;2022-10-16T05:06:15;15.70;99.90
8994;DHT22;4532;50.886;4.700;2022-10-16T05:08:43;15.70;99.90
8994;DHT22;4532;50.886;4.700;2022-10-16T05:11:10;15.70;99.90
8994;DHT22;4532;50.886;4.700;2022-10-16T05:13:37;15.70;99.90
8994;DHT22;4532;50.886;4.700;2022-10-16T05:16:07;15.70;99.90
8994;DHT22;4532;50.886;4.700;2022-10-16T05:18:34;15.70;99.90
8994;DHT22;4532;50.886;4.700;2022-10-16T05:21:01;15.70;99.90
8994;DHT22;4532;50.886;4.700;2022-10-16T05:23:31;15.70;99.90
8994;DHT22;4532;50.886;4.700;2022-10-16T05:25:59;15.70;99.90
8994;DHT22;4532;50.886;4.700;2022-10-16T05:28:29;15.70;99.90
8994;DHT22;4532;50.886;4.700;2022-10-16T05:30:57;15.70;99.90
8994;DHT22;4532;50.886;4.700;2022-10-16T05:33:26;15.70;99.90
8994;DHT22;4532;50.886;4.700;2022-10-16T05:35:53;15.60;99.90
8994;DHT22;4532;50.886;4.700;2022-10-16T05:38:21;15.60;99.90
8994;DHT22;4532;50.886;4.700;2022-10-16T05:40:52;15.60;99.90
8994;DHT22;4532;50.886;4.700;2022-10-16T05:43:20;15.60;99.90
8994;DHT22;4532;50.886;4.700;2022-10-16T05:45:58;15.60;99.90
8994;DHT22;4532;50.886;4.700;2022-10-16T05:48:26;15.60;99.90
8994;DHT22;4532;50.886;4.700;2022-10-16T05:51:04;15.60;99.90
8994;DHT22;4532;50.886;4.700;2022-10-16T05:53:33;15.60;99.90
8994;DHT22;4532;50.886;4.700;2022-10-16T05:56:01;15.50;99.90
8994;DHT22;4532;50.886;4.700;2022-10-16T05:58:34;15.50;99.90
8994;DHT22;4532;50.886;4.700;2022-10-16T06:01:09;15.50;99.90
8994;DHT22;4532;50.886;4.700;2022-10-16T06:03:40;15.50;99.90
8994;DHT22;4532;50.886;4.700;2022-10-16T06:06:18;15.50;99.90
8994;DHT22;4532;50.886;4.700;2022-10-16T06:08:47;15.50;99.90
8994;DHT22;4532;50.886;4.700;2022-10-16T06:11:17;15.50;99.90
8994;DHT22;4532;50.886;4.700;2022-10-16T06:13:49;15.50;99.90
8994;DHT22;4532;50.886;4.700;2022-10-16T06:16:17;15.40;99.90
8994;DHT22;4532;50.886;4.700;2022-10-16T06:18:46;15.50;99.90
8994;DHT22;4532;50.886;4.700;2022-10-16T06:21:18;15.50;99.90
8994;DHT22;4532;50.886;4.700;2022-10-16T06:23:46;15.50;99.90
8994;DHT22;4532;50.886;4.700;2022-10-16T06:26:18;15.40;99.90
8994;DHT22;4532;50.886;4.700;2022-10-16T06:28:48;15.40;99.90
8994;DHT22;4532;50.886;4.700;2022-10-16T06:31:17;15.40;99.90
8994;DHT22;4532;50.886;4.700;2022-10-16T06:33:45;15.40;99.90
8994;DHT22;4532;50.886;4.700;2022-10-16T06:36:16;15.40;99.90
8994;DHT22;4532;50.886;4.700;2022-10-16T06:38:47;15.50;99.90
8994;DHT22;4532;50.886;4.700;2022-10-16T06:41:17;15.50;99.90
8994;DHT22;4532;50.886;4.700;2022-10-16T06:43:44;15.40;99.90
8994;DHT22;4532;50.886;4.700;2022-10-16T06:46:14;15.40;99.90
8994;DHT22;4532;50.886;4.700;2022-10-16T06:48:42;15.40;99.90
8994;DHT22;4532;50.886;4.700;2022-10-16T06:51:14;15.50;99.90
8994;DHT22;4532;50.886;4.700;2022-10-16T06:53:47;15.50;99.90
8994;DHT22;4532;50.886;4.700;2022-10-16T06:56:30;15.50;99.90
8994;DHT22;4532;50.886;4.700;2022-10-16T06:58:59;15.50;99.90
8994;DHT22;4532;50.886;4.700;2022-10-16T07:01:28;15.50;99.90
8994;DHT22;4532;50.886;4.700;2022-10-16T07:04:00;15.50;99.90
8994;DHT22;4532;50.886;4.700;2022-10-16T07:06:31;15.50;99.90
8994;DHT22;4532;50.886;4.700;2022-10-16T07:09:01;15.50;99.90
8994;DHT22;4532;50.886;4.700;2022-10-16T07:11:29;15.60;99.90
8994;DHT22;4532;50.886;4.700;2022-10-16T07:13:56;15.60;99.90
8994;DHT22;4532;50.886;4.700;2022-10-16T07:16:26;15.60;99.90
8994;DHT22;4532;50.886;4.700;2022-10-16T07:18:55;15.60;99.90
8994;DHT22;4532;50.886;4.700;2022-10-16T07:21:29;15.70;99.90
8994;DHT22;4532;50.886;4.700;2022-10-16T07:23:59;15.70;99.90
8994;DHT22;4532;50.886;4.700;2022-10-16T07:26:31;15.70;99.90
8994;DHT22;4532;50.886;4.700;2022-10-16T07:28:59;15.80;99.90
8994;DHT22;4532;50.886;4.700;2022-10-16T07:31:28;15.80;99.90
8994;DHT22;4532;50.886;4.700;2022-10-16T07:33:55;15.80;99.90
8994;DHT22;4532;50.886;4.700;2022-10-16T07:36:27;15.80;99.90
8994;DHT22;4532;50.886;4.700;2022-10-16T07:38:55;15.90;99.90
8994;DHT22;4532;50.886;4.700;2022-10-16T07:41:26;15.90;99.90
8994;DHT22;4532;50.886;4.700;2022-10-16T07:43:56;15.90;99.90
8994;DHT22;4532;50.886;4.700;2022-10-16T07:46:27;16.00;99.90
8994;DHT22;4532;50.886;4.700;2022-10-16T07:48:57;16.00;99.90
8994;DHT22;4532;50.886;4.700;2022-10-16T07:51:25;16.00;99.90
8994;DHT22;4532;50.886;4.700;2022-10-16T07:53:53;16.00;99.90
8994;DHT22;4532;50.886;4.700;2022-10-16T07:56:21;16.10;99.90
8994;DHT22;4532;50.886;4.700;2022-10-16T07:58:48;16.10;99.90
8994;DHT22;4532;50.886;4.700;2022-10-16T08:01:17;16.20;99.90
8994;DHT22;4532;50.886;4.700;2022-10-16T08:03:47;16.20;99.90
8994;DHT22;4532;50.886;4.700;2022-10-16T08:06:16;16.20;99.90
8994;DHT22;4532;50.886;4.700;2022-10-16T08:08:47;16.30;99.90
8994;DHT22;4532;50.886;4.700;2022-10-16T08:11:14;16.30;99.90
8994;DHT22;4532;50.886;4.700;2022-10-16T08:13:42;16.40;99.90
8994;DHT22;4532;50.886;4.700;2022-10-16T08:16:11;16.40;99.90
8994;DHT22;4532;50.886;4.700;2022-10-16T08:18:40;16.40;99.90
8994;DHT22;4532;50.886;4.700;2022-10-16T08:21:13;16.40;99.90
8994;DHT22;4532;50.886;4.700;2022-10-16T08:23:47;16.50;99.90
8994;DHT22;4532;50.886;4.700;2022-10-16T08:26:24;16.50;99.90
8994;DHT22;4532;50.886;4.700;2022-10-16T08:28:51;16.60;99.90
8994;DHT22;4532;50.886;4.700;2022-10-16T08:31:19;16.60;99.90
8994;DHT22;4532;50.886;4.700;2022-10-16T08:33:47;16.60;99.90
8994;DHT22;4532;50.886;4.700;2022-10-16T08:36:16;16.60;99.90
8994;DHT22;4532;50.886;4.700;2022-10-16T08:38:43;16.70;99.90
8994;DHT22;4532;50.886;4.700;2022-10-16T08:47:22;16.80;99.90
8994;DHT22;4532;50.886;4.700;2022-10-16T08:50:07;16.80;99.90
8994;DHT22;4532;50.886;4.700;2022-10-16T08:52:39;16.90;99.90
8994;DHT22;4532;50.886;4.700;2022-10-16T08:55:34;16.90;99.90
8994;DHT22;4532;50.886;4.700;2022-10-16T08:58:17;16.90;99.90
8994;DHT22;4532;50.886;4.700;2022-10-16T09:01:11;17.00;99.90
8994;DHT22;4532;50.886;4.700;2022-10-16T09:12:58;17.20;99.90
8994;DHT22;4532;50.886;4.700;2022-10-16T09:15:31;17.20;99.90
8994;DHT22;4532;50.886;4.700;2022-10-16T09:18:22;17.20;99.90
8994;DHT22;4532;50.886;4.700;2022-10-16T09:21:26;17.20;99.90
8994;DHT22;4532;50.886;4.700;2022-10-16T09:23:57;17.30;99.90
8994;DHT22;4532;50.886;4.700;2022-10-16T09:26:25;17.30;99.90
8994;DHT22;4532;50.886;4.700;2022-10-16T09:28:53;17.40;99.90
8994;DHT22;4532;50.886;4.700;2022-10-16T09:31:22;17.40;99.90
8994;DHT22;4532;50.886;4.700;2022-10-16T09:34:02;17.50;99.90
8994;DHT22;4532;50.886;4.700;2022-10-16T09:36:40;17.50;99.90
8994;DHT22;4532;50.886;4.700;2022-10-16T09:39:11;17.50;99.90
8994;DHT22;4532;50.886;4.700;2022-10-16T09:41:44;17.60;99.90
8994;DHT22;4532;50.886;4.700;2022-10-16T09:44:31;17.60;99.90
8994;DHT22;4532;50.886;4.700;2022-10-16T09:47:10;17.70;99.90
8994;DHT22;4532;50.886;4.700;2022-10-16T09:49:54;17.70;99.90
8994;DHT22;4532;50.886;4.700;2022-10-16T09:52:23;17.80;99.90
8994;DHT22;4532;50.886;4.700;2022-10-16T09:55:08;17.70;99.90
8994;DHT22;4532;50.886;4.700;2022-10-16T09:57:54;17.80;99.90
8994;DHT22;4532;50.886;4.700;2022-10-16T10:00:24;17.80;99.90
8994;DHT22;4532;50.886;4.700;2022-10-16T10:02:52;17.80;99.90
8994;DHT22;4532;50.886;4.700;2022-10-16T10:05:26;17.90;99.90
8994;DHT22;4532;50.886;4.700;2022-10-16T10:07:58;18.00;99.90
8994;DHT22;4532;50.886;4.700;2022-10-16T10:10:27;18.00;99.90
8994;DHT22;4532;50.886;4.700;2022-10-16T10:12:55;18.00;99.90
8994;DHT22;4532;50.886;4.700;2022-10-16T10:15:23;18.10;99.90
8994;DHT22;4532;50.886;4.700;2022-10-16T10:17:53;18.10;99.90
8994;DHT22;4532;50.886;4.700;2022-10-16T10:22:55;18.30;99.90
8994;DHT22;4532;50.886;4.700;2022-10-16T10:25:44;18.30;99.90
8994;DHT22;4532;50.886;4.700;2022-10-16T10:31:21;18.40;99.90
8994;DHT22;4532;50.886;4.700;2022-10-16T10:34:19;18.40;99.90
8994;DHT22;4532;50.886;4.700;2022-10-16T10:39:57;18.50;99.90
8994;DHT22;4532;50.886;4.700;2022-10-16T10:42:40;18.50;99.90
8994;DHT22;4532;50.886;4.700;2022-10-16T10:45:46;18.60;99.90
8994;DHT22;4532;50.886;4.700;2022-10-16T10:50:54;18.70;99.90
8994;DHT22;4532;50.886;4.700;2022-10-16T10:56:03;18.70;99.90
8994;DHT22;4532;50.886;4.700;2022-10-16T10:59:19;18.80;99.90
8994;DHT22;4532;50.886;4.700;2022-10-16T11:07:39;19.00;99.90
8994;DHT22;4532;50.886;4.700;2022-10-16T11:10:17;19.00;99.90
8994;DHT22;4532;50.886;4.700;2022-10-16T11:12:58;19.00;99.90
8994;DHT22;4532;50.886;4.700;2022-10-16T11:15:35;19.10;99.90
8994;DHT22;4532;50.886;4.700;2022-10-16T11:18:29;19.00;99.90
8994;DHT22;4532;50.886;4.700;2022-10-16T11:20:57;19.00;99.90
8994;DHT22;4532;50.886;4.700;2022-10-16T11:23:30;19.10;99.90
8994;DHT22;4532;50.886;4.700;2022-10-16T11:26:05;19.00;99.90
8994;DHT22;4532;50.886;4.700;2022-10-16T11:28:39;19.10;99.90
8994;DHT22;4532;50.886;4.700;2022-10-16T11:31:17;19.10;99.90
8994;DHT22;4532;50.886;4.700;2022-10-16T11:34:25;19.10;99.90
8994;DHT22;4532;50.886;4.700;2022-10-16T11:37:01;19.10;99.90
8994;DHT22;4532;50.886;4.700;2022-10-16T11:39:32;19.10;99.90
8994;DHT22;4532;50.886;4.700;2022-10-16T11:42:11;19.10;99.90
8994;DHT22;4532;50.886;4.700;2022-10-16T11:50:40;19.20;99.90
8994;DHT22;4532;50.886;4.700;2022-10-16T11:54:08;19.20;99.90
8994;DHT22;4532;50.886;4.700;2022-10-16T11:56:27;19.20;99.90
8994;DHT22;4532;50.886;4.700;2022-10-16T11:59:06;19.20;99.90
8994;DHT22;4532;50.886;4.700;2022-10-16T12:01:44;19.20;99.90
8994;DHT22;4532;50.886;4.700;2022-10-16T12:04:25;19.30;99.90
8994;DHT22;4532;50.886;4.700;2022-10-16T12:07:09;19.30;99.90
8994;DHT22;4532;50.886;4.700;2022-10-16T12:09:39;19.30;99.90
8994;DHT22;4532;50.886;4.700;2022-10-16T12:12:39;19.30;99.90
8994;DHT22;4532;50.886;4.700;2022-10-16T12:18:22;19.40;99.90
8994;DHT22;4532;50.886;4.700;2022-10-16T12:20:56;19.40;99.90
8994;DHT22;4532;50.886;4.700;2022-10-16T12:23:36;19.50;99.90
8994;DHT22;4532;50.886;4.700;2022-10-16T12:26:05;19.60;99.90
8994;DHT22;4532;50.886;4.700;2022-10-16T12:28:33;19.60;99.90
8994;DHT22;4532;50.886;4.700;2022-10-16T12:31:04;19.70;99.90
8994;DHT22;4532;50.886;4.700;2022-10-16T12:33:34;19.80;99.90
8994;DHT22;4532;50.886;4.700;2022-10-16T12:36:04;19.80;99.90
8994;DHT22;4532;50.886;4.700;2022-10-16T12:38:51;19.90;99.90
8994;DHT22;4532;50.886;4.700;2022-10-16T12:41:35;20.00;99.90
8994;DHT22;4532;50.886;4.700;2022-10-16T12:44:04;20.00;99.90
8994;DHT22;4532;50.886;4.700;2022-10-16T12:46:36;20.10;99.90
8994;DHT22;4532;50.886;4.700;2022-10-16T12:51:42;20.20;99.90
8994;DHT22;4532;50.886;4.700;2022-10-16T12:54:28;20.30;99.90
8994;DHT22;4532;50.886;4.700;2022-10-16T13:00:07;20.40;99.90
8994;DHT22;4532;50.886;4.700;2022-10-16T13:08:38;20.40;99.90
8994;DHT22;4532;50.886;4.700;2022-10-16T13:11:41;20.40;99.90
8994;DHT22;4532;50.886;4.700;2022-10-16T13:14:32;20.40;99.90
8994;DHT22;4532;50.886;4.700;2022-10-16T13:27:55;20.60;99.90
8994;DHT22;4532;50.886;4.700;2022-10-16T13:30:29;20.60;99.90
8994;DHT22;4532;50.886;4.700;2022-10-16T13:33:48;20.70;99.90
8994;DHT22;4532;50.886;4.700;2022-10-16T13:35:54;20.70;99.90
8994;DHT22;4532;50.886;4.700;2022-10-16T13:38:33;20.80;99.90
8994;DHT22;4532;50.886;4.700;2022-10-16T13:41:06;20.80;99.90
8994;DHT22;4532;50.886;4.700;2022-10-16T13:43:40;20.80;99.90
8994;DHT22;4532;50.886;4.700;2022-10-16T13:46:13;20.80;99.90
8994;DHT22;4532;50.886;4.700;2022-10-16T13:48:40;20.90;99.90
8994;DHT22;4532;50.886;4.700;2022-10-16T13:51:21;20.90;99.90
8994;DHT22;4532;50.886;4.700;2022-10-16T13:53:55;20.90;99.90
8994;DHT22;4532;50.886;4.700;2022-10-16T13:56:30;21.00;99.90
8994;DHT22;4532;50.886;4.700;2022-10-16T13:59:34;21.00;99.90
8994;DHT22;4532;50.886;4.700;2022-10-16T14:02:19;21.00;99.90
8994;DHT22;4532;50.886;4.700;2022-10-16T14:04:51;21.00;99.90
8994;DHT22;4532;50.886;4.700;2022-10-16T14:07:27;20.90;99.90
8994;DHT22;4532;50.886;4.700;2022-10-16T14:09:56;20.90;99.90
8994;DHT22;4532;50.886;4.700;2022-10-16T14:12:28;20.90;99.90
8994;DHT22;4532;50.886;4.700;2022-10-16T14:14:57;21.00;99.90
8994;DHT22;4532;50.886;4.700;2022-10-16T14:17:28;21.00;99.90
8994;DHT22;4532;50.886;4.700;2022-10-16T14:19:58;21.00;99.90
8994;DHT22;4532;50.886;4.700;2022-10-16T14:22:38;21.00;99.90
8994;DHT22;4532;50.886;4.700;2022-10-16T14:28:14;21.00;99.90
8994;DHT22;4532;50.886;4.700;2022-10-16T14:30:56;21.00;99.90
8994;DHT22;4532;50.886;4.700;2022-10-16T14:38:32;21.00;99.90
8994;DHT22;4532;50.886;4.700;2022-10-16T14:41:03;20.90;99.90
8994;DHT22;4532;50.886;4.700;2022-10-16T14:43:39;20.90;99.90
8994;DHT22;4532;50.886;4.700;2022-10-16T14:46:12;20.90;99.90
8994;DHT22;4532;50.886;4.700;2022-10-16T14:48:46;20.90;99.90
8994;DHT22;4532;50.886;4.700;2022-10-16T14:51:15;21.00;99.90
8994;DHT22;4532;50.886;4.700;2022-10-16T14:53:43;21.00;99.90
8994;DHT22;4532;50.886;4.700;2022-10-16T14:56:23;21.00;99.90
8994;DHT22;4532;50.886;4.700;2022-10-16T14:58:52;21.00;99.90
8994;DHT22;4532;50.886;4.700;2022-10-16T15:01:20;21.00;99.90
8994;DHT22;4532;50.886;4.700;2022-10-16T15:03:47;21.00;99.90
8994;DHT22;4532;50.886;4.700;2022-10-16T15:06:16;21.10;99.90
8994;DHT22;4532;50.886;4.700;2022-10-16T15:08:43;21.10;99.90
8994;DHT22;4532;50.886;4.700;2022-10-16T15:11:15;21.10;99.90
8994;DHT22;4532;50.886;4.700;2022-10-16T15:13:43;21.10;99.90
8994;DHT22;4532;50.886;4.700;2022-10-16T15:16:12;21.10;99.90
8994;DHT22;4532;50.886;4.700;2022-10-16T15:18:39;21.10;99.90
8994;DHT22;4532;50.886;4.700;2022-10-16T15:21:06;21.10;99.90
8994;DHT22;4532;50.886;4.700;2022-10-16T15:23:34;21.10;99.90
8994;DHT22;4532;50.886;4.700;2022-10-16T15:26:01;21.00;99.90
8994;DHT22;4532;50.886;4.700;2022-10-16T15:28:28;21.00;99.90
8994;DHT22;4532;50.886;4.700;2022-10-16T15:30:56;21.00;99.90
8994;DHT22;4532;50.886;4.700;2022-10-16T15:33:26;21.00;99.90
8994;DHT22;4532;50.886;4.700;2022-10-16T15:36:06;20.90;99.90
8994;DHT22;4532;50.886;4.700;2022-10-16T15:38:36;20.90;99.90
8994;DHT22;4532;50.886;4.700;2022-10-16T15:41:03;20.90;99.90
8994;DHT22;4532;50.886;4.700;2022-10-16T15:43:30;20.90;99.90
8994;DHT22;4532;50.886;4.700;2022-10-16T15:46:09;20.80;99.90
8994;DHT22;4532;50.886;4.700;2022-10-16T15:48:37;20.80;99.90
8994;DHT22;4532;50.886;4.700;2022-10-16T15:51:06;20.80;99.90
8994;DHT22;4532;50.886;4.700;2022-10-16T15:53:35;20.80;99.90
8994;DHT22;4532;50.886;4.700;2022-10-16T15:56:09;20.70;99.90
8994;DHT22;4532;50.886;4.700;2022-10-16T15:58:39;20.70;99.90
8994;DHT22;4532;50.886;4.700;2022-10-16T16:01:07;20.70;99.90
8994;DHT22;4532;50.886;4.700;2022-10-16T16:03:38;20.70;99.90
8994;DHT22;4532;50.886;4.700;2022-10-16T16:06:09;20.60;99.90
8994;DHT22;4532;50.886;4.700;2022-10-16T16:08:36;20.60;99.90
8994;DHT22;4532;50.886;4.700;2022-10-16T16:11:09;20.60;99.90
8994;DHT22;4532;50.886;4.700;2022-10-16T16:13:37;20.60;99.90
8994;DHT22;4532;50.886;4.700;2022-10-16T16:16:13;20.50;99.90
8994;DHT22;4532;50.886;4.700;2022-10-16T16:18:41;20.50;99.90
8994;DHT22;4532;50.886;4.700;2022-10-16T16:21:11;20.50;99.90
8994;DHT22;4532;50.886;4.700;2022-10-16T16:23:41;20.50;99.90
8994;DHT22;4532;50.886;4.700;2022-10-16T16:26:25;20.50;99.90
8994;DHT22;4532;50.886;4.700;2022-10-16T16:28:54;20.40;99.90
8994;DHT22;4532;50.886;4.700;2022-10-16T16:31:30;20.40;99.90
8994;DHT22;4532;50.886;4.700;2022-10-16T16:33:58;20.40;99.90
8994;DHT22;4532;50.886;4.700;2022-10-16T16:36:25;20.40;99.90
8994;DHT22;4532;50.886;4.700;2022-10-16T16:38:52;20.30;99.90
8994;DHT22;4532;50.886;4.700;2022-10-16T16:41:22;20.30;99.90
8994;DHT22;4532;50.886;4.700;2022-10-16T16:43:50;20.30;99.90
8994;DHT22;4532;50.886;4.700;2022-10-16T16:46:21;20.20;99.90
8994;DHT22;4532;50.886;4.700;2022-10-16T16:48:48;20.20;99.90
8994;DHT22;4532;50.886;4.700;2022-10-16T16:51:18;20.20;99.90
8994;DHT22;4532;50.886;4.700;2022-10-16T16:53:49;20.20;99.90
8994;DHT22;4532;50.886;4.700;2022-10-16T16:56:18;20.10;99.90
8994;DHT22;4532;50.886;4.700;2022-10-16T16:58:47;20.10;99.90
8994;DHT22;4532;50.886;4.700;2022-10-16T17:01:17;20.10;99.90
8994;DHT22;4532;50.886;4.700;2022-10-16T17:03:49;20.10;99.90
8994;DHT22;4532;50.886;4.700;2022-10-16T17:06:19;20.00;99.90
8994;DHT22;4532;50.886;4.700;2022-10-16T17:08:48;20.00;99.90
8994;DHT22;4532;50.886;4.700;2022-10-16T17:11:18;20.00;99.90
8994;DHT22;4532;50.886;4.700;2022-10-16T17:13:46;19.90;99.90
8994;DHT22;4532;50.886;4.700;2022-10-16T17:16:18;19.90;99.90
8994;DHT22;4532;50.886;4.700;2022-10-16T17:18:48;19.90;99.90
8994;DHT22;4532;50.886;4.700;2022-10-16T17:21:15;19.90;99.90
8994;DHT22;4532;50.886;4.700;2022-10-16T17:23:42;19.90;99.90
8994;DHT22;4532;50.886;4.700;2022-10-16T17:26:12;19.90;99.90
8994;DHT22;4532;50.886;4.700;2022-10-16T17:28:41;19.90;99.90
8994;DHT22;4532;50.886;4.700;2022-10-16T17:31:19;19.90;99.90
8994;DHT22;4532;50.886;4.700;2022-10-16T17:33:47;19.90;99.90
8994;DHT22;4532;50.886;4.700;2022-10-16T17:36:14;19.90;99.90
8994;DHT22;4532;50.886;4.700;2022-10-16T17:38:42;19.80;99.90
8994;DHT22;4532;50.886;4.700;2022-10-16T17:41:21;19.80;99.90
8994;DHT22;4532;50.886;4.700;2022-10-16T17:43:51;19.80;99.90
8994;DHT22;4532;50.886;4.700;2022-10-16T17:46:20;19.80;99.90
8994;DHT22;4532;50.886;4.700;2022-10-16T17:48:49;19.80;99.90
8994;DHT22;4532;50.886;4.700;2022-10-16T17:51:18;19.80;99.90
8994;DHT22;4532;50.886;4.700;2022-10-16T17:53:50;19.80;99.90
8994;DHT22;4532;50.886;4.700;2022-10-16T17:56:20;19.70;99.90
8994;DHT22;4532;50.886;4.700;2022-10-16T17:58:51;19.70;99.90
8994;DHT22;4532;50.886;4.700;2022-10-16T18:01:21;19.70;99.90
8994;DHT22;4532;50.886;4.700;2022-10-16T18:03:55;19.70;99.90
8994;DHT22;4532;50.886;4.700;2022-10-16T18:06:23;19.60;99.90
8994;DHT22;4532;50.886;4.700;2022-10-16T18:08:52;19.60;99.90